sensor_id;sensor_type;location;lat;lon;timestamp;P1;durP1;ratioP1;P2;durP2;ratioP2
28074;SDS011;15385;51.088;6.572;2023-04-20T00:04:11;6.10;;;3.08;;
28074;SDS011;15385;51.088;6.572;2023-04-20T00:06:42;5.55;;;2.60;;
28074;SDS011;15385;51.088;6.572;2023-04-20T00:09:13;4.07;;;2.78;;
28074;SDS011;15385;51.088;6.572;2023-04-20T00:11:45;6.35;;;3.70;;
28074;SDS011;15385;51.088;6.572;2023-04-20T00:16:47;7.30;;;3.20;;
28074;SDS011;15385;51.088;6.572;2023-04-20T00:19:18;6.07;;;3.17;;
28074;SDS011;15385;51.088;6.572;2023-04-20T00:21:49;4.43;;;3.10;;
28074;SDS011;15385;51.088;6.572;2023-04-20T00:24:21;4.55;;;3.58;;
28074;SDS011;15385;51.088;6.572;2023-04-20T00:29:24;5.40;;;3.40;;
28074;SDS011;15385;51.088;6.572;2023-04-20T00:31:54;5.32;;;3.00;;
28074;SDS011;15385;51.088;6.572;2023-04-20T00:34:25;6.45;;;3.58;;
28074;SDS011;15385;51.088;6.572;2023-04-20T00:36:55;8.15;;;3.30;;
28074;SDS011;15385;51.088;6.572;2023-04-20T00:39:26;6.95;;;3.55;;
28074;SDS011;15385;51.088;6.572;2023-04-20T00:44:37;5.10;;;3.30;;
28074;SDS011;15385;51.088;6.572;2023-04-20T00:49:38;9.07;;;3.60;;
28074;SDS011;15385;51.088;6.572;2023-04-20T00:52:10;7.97;;;3.22;;
28074;SDS011;15385;51.088;6.572;2023-04-20T00:57:12;8.52;;;3.72;;
28074;SDS011;15385;51.088;6.572;2023-04-20T00:59:43;5.38;;;3.17;;
28074;SDS011;15385;51.088;6.572;2023-04-20T01:04:45;4.77;;;3.10;;
28074;SDS011;15385;51.088;6.572;2023-04-20T01:07:16;14.18;;;3.40;;
28074;SDS011;15385;51.088;6.572;2023-04-20T01:12:17;6.17;;;3.40;;
28074;SDS011;15385;51.088;6.572;2023-04-20T01:14:47;6.20;;;3.33;;
28074;SDS011;15385;51.088;6.572;2023-04-20T01:17:19;5.35;;;3.10;;
28074;SDS011;15385;51.088;6.572;2023-04-20T01:19:49;6.18;;;3.63;;
28074;SDS011;15385;51.088;6.572;2023-04-20T01:24:51;4.45;;;3.20;;
28074;SDS011;15385;51.088;6.572;2023-04-20T01:27:22;6.38;;;2.85;;
28074;SDS011;15385;51.088;6.572;2023-04-20T01:29:53;6.13;;;3.17;;
28074;SDS011;15385;51.088;6.572;2023-04-20T01:34:54;5.33;;;3.17;;
28074;SDS011;15385;51.088;6.572;2023-04-20T01:39:55;4.97;;;3.10;;
28074;SDS011;15385;51.088;6.572;2023-04-20T01:42:25;10.18;;;3.47;;
28074;SDS011;15385;51.088;6.572;2023-04-20T01:44:56;9.20;;;4.10;;
28074;SDS011;15385;51.088;6.572;2023-04-20T01:47:28;8.05;;;3.75;;
28074;SDS011;15385;51.088;6.572;2023-04-20T01:49:59;5.85;;;3.65;;
28074;SDS011;15385;51.088;6.572;2023-04-20T01:55:00;6.50;;;3.80;;
28074;SDS011;15385;51.088;6.572;2023-04-20T01:57:31;5.75;;;3.25;;
28074;SDS011;15385;51.088;6.572;2023-04-20T02:00:02;6.72;;;2.92;;
28074;SDS011;15385;51.088;6.572;2023-04-20T02:02:33;6.95;;;3.20;;
28074;SDS011;15385;51.088;6.572;2023-04-20T02:07:35;4.35;;;3.20;;
28074;SDS011;15385;51.088;6.572;2023-04-20T02:10:05;5.50;;;2.90;;
28074;SDS011;15385;51.088;6.572;2023-04-20T02:12:36;5.28;;;2.90;;
28074;SDS011;15385;51.088;6.572;2023-04-20T02:17:40;6.18;;;3.85;;
28074;SDS011;15385;51.088;6.572;2023-04-20T02:20:12;5.43;;;3.78;;
28074;SDS011;15385;51.088;6.572;2023-04-20T02:25:14;5.80;;;3.73;;
28074;SDS011;15385;51.088;6.572;2023-04-20T02:30:15;5.63;;;3.53;;
28074;SDS011;15385;51.088;6.572;2023-04-20T02:32:45;5.43;;;3.30;;
28074;SDS011;15385;51.088;6.572;2023-04-20T02:35:16;4.75;;;3.25;;
28074;SDS011;15385;51.088;6.572;2023-04-20T02:37:47;5.63;;;3.70;;
28074;SDS011;15385;51.088;6.572;2023-04-20T02:42:48;4.13;;;2.63;;
28074;SDS011;15385;51.088;6.572;2023-04-20T02:47:49;5.77;;;3.07;;
28074;SDS011;15385;51.088;6.572;2023-04-20T02:50:20;8.48;;;2.97;;
28074;SDS011;15385;51.088;6.572;2023-04-20T02:55:21;5.50;;;3.22;;
28074;SDS011;15385;51.088;6.572;2023-04-20T02:57:52;6.43;;;3.15;;
28074;SDS011;15385;51.088;6.572;2023-04-20T03:00:22;5.10;;;3.30;;
28074;SDS011;15385;51.088;6.572;2023-04-20T03:02:53;4.32;;;2.90;;
28074;SDS011;15385;51.088;6.572;2023-04-20T03:05:23;7.50;;;2.97;;
28074;SDS011;15385;51.088;6.572;2023-04-20T03:07:55;3.97;;;2.65;;
28074;SDS011;15385;51.088;6.572;2023-04-20T03:10:25;4.20;;;3.00;;
28074;SDS011;15385;51.088;6.572;2023-04-20T03:15:26;6.10;;;2.97;;
28074;SDS011;15385;51.088;6.572;2023-04-20T03:20:28;6.07;;;3.00;;
28074;SDS011;15385;51.088;6.572;2023-04-20T03:22:59;4.20;;;2.70;;
28074;SDS011;15385;51.088;6.572;2023-04-20T03:28:01;4.97;;;3.05;;
28074;SDS011;15385;51.088;6.572;2023-04-20T03:33:02;5.40;;;2.87;;
28074;SDS011;15385;51.088;6.572;2023-04-20T03:38:03;6.80;;;3.37;;
28074;SDS011;15385;51.088;6.572;2023-04-20T03:40:35;6.03;;;3.10;;
28074;SDS011;15385;51.088;6.572;2023-04-20T03:45:36;6.40;;;2.97;;
28074;SDS011;15385;51.088;6.572;2023-04-20T03:50:37;12.43;;;4.10;;
28074;SDS011;15385;51.088;6.572;2023-04-20T03:55:38;5.53;;;2.73;;
28074;SDS011;15385;51.088;6.572;2023-04-20T03:58:09;5.25;;;2.47;;
28074;SDS011;15385;51.088;6.572;2023-04-20T04:00:39;3.92;;;2.75;;
28074;SDS011;15385;51.088;6.572;2023-04-20T04:03:10;4.22;;;2.60;;
28074;SDS011;15385;51.088;6.572;2023-04-20T04:08:11;6.97;;;3.10;;
28074;SDS011;15385;51.088;6.572;2023-04-20T04:10:41;6.45;;;3.13;;
28074;SDS011;15385;51.088;6.572;2023-04-20T04:13:12;6.05;;;2.90;;
28074;SDS011;15385;51.088;6.572;2023-04-20T04:15:43;4.57;;;2.90;;
28074;SDS011;15385;51.088;6.572;2023-04-20T04:20:44;3.30;;;2.67;;
28074;SDS011;15385;51.088;6.572;2023-04-20T04:23:14;4.13;;;2.80;;
28074;SDS011;15385;51.088;6.572;2023-04-20T04:28:15;5.53;;;2.70;;
28074;SDS011;15385;51.088;6.572;2023-04-20T04:30:46;6.65;;;3.65;;
28074;SDS011;15385;51.088;6.572;2023-04-20T04:33:17;4.43;;;2.40;;
28074;SDS011;15385;51.088;6.572;2023-04-20T04:35:49;3.65;;;2.42;;
28074;SDS011;15385;51.088;6.572;2023-04-20T04:40:50;5.43;;;2.72;;
28074;SDS011;15385;51.088;6.572;2023-04-20T04:45:53;4.53;;;2.72;;
28074;SDS011;15385;51.088;6.572;2023-04-20T04:48:24;4.65;;;2.25;;
28074;SDS011;15385;51.088;6.572;2023-04-20T04:53:25;6.40;;;3.10;;
28074;SDS011;15385;51.088;6.572;2023-04-20T04:55:56;6.72;;;3.00;;
28074;SDS011;15385;51.088;6.572;2023-04-20T04:58:26;6.53;;;2.95;;
28074;SDS011;15385;51.088;6.572;2023-04-20T05:00:57;5.15;;;3.33;;
28074;SDS011;15385;51.088;6.572;2023-04-20T05:03:27;6.57;;;3.47;;
28074;SDS011;15385;51.088;6.572;2023-04-20T05:08:28;6.87;;;3.40;;
28074;SDS011;15385;51.088;6.572;2023-04-20T05:10:59;6.53;;;3.20;;
28074;SDS011;15385;51.088;6.572;2023-04-20T05:16:00;9.40;;;4.10;;
28074;SDS011;15385;51.088;6.572;2023-04-20T05:21:01;7.80;;;3.50;;
28074;SDS011;15385;51.088;6.572;2023-04-20T05:23:32;7.40;;;3.40;;
28074;SDS011;15385;51.088;6.572;2023-04-20T05:28:33;6.27;;;4.00;;
28074;SDS011;15385;51.088;6.572;2023-04-20T05:33:35;7.13;;;3.72;;
28074;SDS011;15385;51.088;6.572;2023-04-20T05:38:39;5.10;;;3.58;;
28074;SDS011;15385;51.088;6.572;2023-04-20T05:43:40;14.80;;;4.57;;
28074;SDS011;15385;51.088;6.572;2023-04-20T05:48:41;8.63;;;4.47;;
28074;SDS011;15385;51.088;6.572;2023-04-20T05:51:12;5.20;;;3.58;;
28074;SDS011;15385;51.088;6.572;2023-04-20T05:53:43;7.80;;;3.90;;
28074;SDS011;15385;51.088;6.572;2023-04-20T05:56:13;8.48;;;4.78;;
28074;SDS011;15385;51.088;6.572;2023-04-20T05:58:44;4.63;;;3.47;;
28074;SDS011;15385;51.088;6.572;2023-04-20T06:03:45;6.70;;;3.50;;
28074;SDS011;15385;51.088;6.572;2023-04-20T06:06:18;8.93;;;4.30;;
28074;SDS011;15385;51.088;6.572;2023-04-20T06:11:21;6.78;;;3.63;;
28074;SDS011;15385;51.088;6.572;2023-04-20T06:16:22;11.07;;;5.00;;
28074;SDS011;15385;51.088;6.572;2023-04-20T06:18:52;6.32;;;4.50;;
28074;SDS011;15385;51.088;6.572;2023-04-20T06:23:53;6.60;;;4.03;;
28074;SDS011;15385;51.088;6.572;2023-04-20T06:26:24;6.13;;;4.43;;
28074;SDS011;15385;51.088;6.572;2023-04-20T06:28:55;5.82;;;4.50;;
28074;SDS011;15385;51.088;6.572;2023-04-20T06:31:26;7.28;;;4.85;;
28074;SDS011;15385;51.088;6.572;2023-04-20T06:33:56;8.60;;;5.15;;
28074;SDS011;15385;51.088;6.572;2023-04-20T06:36:27;9.48;;;6.00;;
28074;SDS011;15385;51.088;6.572;2023-04-20T06:38:57;10.73;;;7.03;;
28074;SDS011;15385;51.088;6.572;2023-04-20T06:43:58;8.00;;;6.73;;
28074;SDS011;15385;51.088;6.572;2023-04-20T06:46:29;12.43;;;7.18;;
28074;SDS011;15385;51.088;6.572;2023-04-20T06:49:00;10.65;;;7.65;;
28074;SDS011;15385;51.088;6.572;2023-04-20T06:51:32;10.75;;;7.50;;
28074;SDS011;15385;51.088;6.572;2023-04-20T06:54:03;9.82;;;7.40;;
28074;SDS011;15385;51.088;6.572;2023-04-20T06:59:04;11.57;;;8.33;;
28074;SDS011;15385;51.088;6.572;2023-04-20T07:04:05;11.53;;;7.53;;
28074;SDS011;15385;51.088;6.572;2023-04-20T07:09:06;10.83;;;8.63;;
28074;SDS011;15385;51.088;6.572;2023-04-20T07:11:38;12.50;;;8.32;;
28074;SDS011;15385;51.088;6.572;2023-04-20T07:16:39;10.63;;;8.37;;
28074;SDS011;15385;51.088;6.572;2023-04-20T07:19:10;12.68;;;9.88;;
28074;SDS011;15385;51.088;6.572;2023-04-20T07:24:11;11.80;;;9.13;;
28074;SDS011;15385;51.088;6.572;2023-04-20T07:26:41;11.82;;;8.40;;
28074;SDS011;15385;51.088;6.572;2023-04-20T07:31:42;7.33;;;6.17;;
28074;SDS011;15385;51.088;6.572;2023-04-20T07:34:13;8.32;;;5.63;;
28074;SDS011;15385;51.088;6.572;2023-04-20T07:36:44;5.10;;;4.55;;
28074;SDS011;15385;51.088;6.572;2023-04-20T07:41:45;5.35;;;4.00;;
28074;SDS011;15385;51.088;6.572;2023-04-20T07:44:15;5.20;;;3.50;;
28074;SDS011;15385;51.088;6.572;2023-04-20T07:46:46;4.88;;;3.65;;
28074;SDS011;15385;51.088;6.572;2023-04-20T07:49:18;5.60;;;3.58;;
28074;SDS011;15385;51.088;6.572;2023-04-20T07:54:19;5.67;;;3.87;;
28074;SDS011;15385;51.088;6.572;2023-04-20T07:56:50;4.90;;;3.80;;
28074;SDS011;15385;51.088;6.572;2023-04-20T07:59:20;4.57;;;3.78;;
28074;SDS011;15385;51.088;6.572;2023-04-20T08:04:21;4.17;;;3.30;;
28074;SDS011;15385;51.088;6.572;2023-04-20T08:09:23;5.43;;;3.70;;
28074;SDS011;15385;51.088;6.572;2023-04-20T08:11:55;4.95;;;4.20;;
28074;SDS011;15385;51.088;6.572;2023-04-20T08:16:56;6.10;;;4.07;;
28074;SDS011;15385;51.088;6.572;2023-04-20T08:19:26;4.53;;;3.78;;
28074;SDS011;15385;51.088;6.572;2023-04-20T08:21:57;6.50;;;4.18;;
28074;SDS011;15385;51.088;6.572;2023-04-20T08:24:28;4.55;;;3.47;;
28074;SDS011;15385;51.088;6.572;2023-04-20T08:29:29;4.82;;;4.05;;
28074;SDS011;15385;51.088;6.572;2023-04-20T08:32:00;4.75;;;3.45;;
28074;SDS011;15385;51.088;6.572;2023-04-20T08:34:30;5.55;;;4.32;;
28074;SDS011;15385;51.088;6.572;2023-04-20T08:37:01;4.90;;;4.00;;
28074;SDS011;15385;51.088;6.572;2023-04-20T08:39:32;8.40;;;4.40;;
28074;SDS011;15385;51.088;6.572;2023-04-20T08:44:34;6.05;;;4.43;;
28074;SDS011;15385;51.088;6.572;2023-04-20T08:47:05;4.43;;;3.97;;
28074;SDS011;15385;51.088;6.572;2023-04-20T08:49:38;4.95;;;4.25;;
28074;SDS011;15385;51.088;6.572;2023-04-20T08:54:40;4.97;;;4.25;;
28074;SDS011;15385;51.088;6.572;2023-04-20T08:59:41;4.63;;;4.13;;
28074;SDS011;15385;51.088;6.572;2023-04-20T09:02:12;4.78;;;4.28;;
28074;SDS011;15385;51.088;6.572;2023-04-20T09:04:43;6.63;;;4.70;;
28074;SDS011;15385;51.088;6.572;2023-04-20T09:07:18;6.35;;;4.38;;
28074;SDS011;15385;51.088;6.572;2023-04-20T09:09:53;6.50;;;4.32;;
28074;SDS011;15385;51.088;6.572;2023-04-20T09:12:25;5.88;;;4.20;;
28074;SDS011;15385;51.088;6.572;2023-04-20T09:14:56;5.40;;;4.13;;
28074;SDS011;15385;51.088;6.572;2023-04-20T09:20:02;6.80;;;4.70;;
28074;SDS011;15385;51.088;6.572;2023-04-20T09:22:34;7.97;;;4.95;;
28074;SDS011;15385;51.088;6.572;2023-04-20T09:25:15;8.52;;;4.60;;
28074;SDS011;15385;51.088;6.572;2023-04-20T09:27:54;5.85;;;4.80;;
28074;SDS011;15385;51.088;6.572;2023-04-20T09:30:47;7.68;;;5.47;;
28074;SDS011;15385;51.088;6.572;2023-04-20T09:33:18;7.00;;;5.68;;
28074;SDS011;15385;51.088;6.572;2023-04-20T09:38:24;8.13;;;5.40;;
28074;SDS011;15385;51.088;6.572;2023-04-20T09:40:57;7.22;;;4.85;;
28074;SDS011;15385;51.088;6.572;2023-04-20T09:43:31;4.75;;;4.15;;
28074;SDS011;15385;51.088;6.572;2023-04-20T09:46:02;7.03;;;4.50;;
28074;SDS011;15385;51.088;6.572;2023-04-20T09:51:04;7.53;;;5.57;;
28074;SDS011;15385;51.088;6.572;2023-04-20T09:53:35;7.32;;;6.25;;
28074;SDS011;15385;51.088;6.572;2023-04-20T09:56:05;6.72;;;5.82;;
28074;SDS011;15385;51.088;6.572;2023-04-20T09:58:37;6.65;;;5.57;;
28074;SDS011;15385;51.088;6.572;2023-04-20T10:03:42;8.30;;;5.80;;
28074;SDS011;15385;51.088;6.572;2023-04-20T10:06:17;5.97;;;5.22;;
28074;SDS011;15385;51.088;6.572;2023-04-20T10:08:55;6.70;;;5.22;;
28074;SDS011;15385;51.088;6.572;2023-04-20T10:11:27;7.32;;;5.50;;
28074;SDS011;15385;51.088;6.572;2023-04-20T10:14:16;7.53;;;4.80;;
28074;SDS011;15385;51.088;6.572;2023-04-20T10:16:58;6.78;;;4.88;;
28074;SDS011;15385;51.088;6.572;2023-04-20T10:19:42;4.35;;;3.95;;
28074;SDS011;15385;51.088;6.572;2023-04-20T10:22:24;7.57;;;4.80;;
28074;SDS011;15385;51.088;6.572;2023-04-20T10:25:13;6.32;;;3.97;;
28074;SDS011;15385;51.088;6.572;2023-04-20T10:28:04;4.60;;;4.00;;
28074;SDS011;15385;51.088;6.572;2023-04-20T10:30:48;4.47;;;4.00;;
28074;SDS011;15385;51.088;6.572;2023-04-20T10:33:20;4.45;;;3.67;;
28074;SDS011;15385;51.088;6.572;2023-04-20T10:35:52;5.22;;;4.20;;
28074;SDS011;15385;51.088;6.572;2023-04-20T10:38:32;5.97;;;4.32;;
28074;SDS011;15385;51.088;6.572;2023-04-20T10:41:04;6.20;;;4.28;;
28074;SDS011;15385;51.088;6.572;2023-04-20T10:43:36;6.80;;;3.92;;
28074;SDS011;15385;51.088;6.572;2023-04-20T10:48:50;4.55;;;3.80;;
28074;SDS011;15385;51.088;6.572;2023-04-20T10:51:25;8.85;;;4.30;;
28074;SDS011;15385;51.088;6.572;2023-04-20T10:54:03;4.55;;;3.78;;
28074;SDS011;15385;51.088;6.572;2023-04-20T10:56:45;4.60;;;3.38;;
28074;SDS011;15385;51.088;6.572;2023-04-20T10:59:18;5.45;;;3.10;;
28074;SDS011;15385;51.088;6.572;2023-04-20T11:01:52;4.10;;;2.30;;
28074;SDS011;15385;51.088;6.572;2023-04-20T11:04:30;2.78;;;2.22;;
28074;SDS011;15385;51.088;6.572;2023-04-20T11:07:08;2.40;;;2.20;;
28074;SDS011;15385;51.088;6.572;2023-04-20T11:09:42;5.05;;;2.22;;
28074;SDS011;15385;51.088;6.572;2023-04-20T11:14:51;2.22;;;1.58;;
28074;SDS011;15385;51.088;6.572;2023-04-20T11:17:30;1.58;;;1.38;;
28074;SDS011;15385;51.088;6.572;2023-04-20T11:22:43;2.45;;;1.38;;
28074;SDS011;15385;51.088;6.572;2023-04-20T11:27:44;1.70;;;1.30;;
28074;SDS011;15385;51.088;6.572;2023-04-20T11:32:52;2.22;;;1.65;;
28074;SDS011;15385;51.088;6.572;2023-04-20T11:35:23;2.78;;;1.75;;
28074;SDS011;15385;51.088;6.572;2023-04-20T11:40:26;2.70;;;1.88;;
28074;SDS011;15385;51.088;6.572;2023-04-20T11:45:30;2.00;;;1.80;;
28074;SDS011;15385;51.088;6.572;2023-04-20T11:48:03;4.22;;;1.85;;
28074;SDS011;15385;51.088;6.572;2023-04-20T11:50:35;3.63;;;1.90;;
28074;SDS011;15385;51.088;6.572;2023-04-20T11:53:06;2.58;;;1.70;;
28074;SDS011;15385;51.088;6.572;2023-04-20T11:55:39;2.05;;;1.60;;
28074;SDS011;15385;51.088;6.572;2023-04-20T11:58:10;1.70;;;1.58;;
28074;SDS011;15385;51.088;6.572;2023-04-20T12:03:11;1.47;;;1.37;;
28074;SDS011;15385;51.088;6.572;2023-04-20T12:08:12;2.00;;;1.27;;
28074;SDS011;15385;51.088;6.572;2023-04-20T12:10:43;1.20;;;1.10;;
28074;SDS011;15385;51.088;6.572;2023-04-20T12:13:14;1.20;;;1.00;;
28074;SDS011;15385;51.088;6.572;2023-04-20T12:15:45;1.00;;;0.90;;
28074;SDS011;15385;51.088;6.572;2023-04-20T12:20:46;0.93;;;0.60;;
28074;SDS011;15385;51.088;6.572;2023-04-20T12:23:19;1.05;;;0.95;;
28074;SDS011;15385;51.088;6.572;2023-04-20T12:25:49;1.30;;;0.90;;
28074;SDS011;15385;51.088;6.572;2023-04-20T12:30:50;1.10;;;1.00;;
28074;SDS011;15385;51.088;6.572;2023-04-20T12:33:21;1.20;;;1.10;;
28074;SDS011;15385;51.088;6.572;2023-04-20T12:35:51;1.42;;;1.20;;
28074;SDS011;15385;51.088;6.572;2023-04-20T12:38:22;2.33;;;1.42;;
28074;SDS011;15385;51.088;6.572;2023-04-20T12:40:53;1.92;;;1.40;;
28074;SDS011;15385;51.088;6.572;2023-04-20T12:43:23;2.65;;;1.70;;
28074;SDS011;15385;51.088;6.572;2023-04-20T12:45:54;1.95;;;1.70;;
28074;SDS011;15385;51.088;6.572;2023-04-20T12:48:24;1.75;;;1.65;;
28074;SDS011;15385;51.088;6.572;2023-04-20T12:50:55;3.55;;;1.70;;
28074;SDS011;15385;51.088;6.572;2023-04-20T12:55:56;2.53;;;2.33;;
28074;SDS011;15385;51.088;6.572;2023-04-20T13:00:57;6.53;;;2.67;;
28074;SDS011;15385;51.088;6.572;2023-04-20T13:03:28;2.50;;;2.30;;
28074;SDS011;15385;51.088;6.572;2023-04-20T13:05:59;3.75;;;3.00;;
28074;SDS011;15385;51.088;6.572;2023-04-20T13:08:29;3.40;;;2.88;;
28074;SDS011;15385;51.088;6.572;2023-04-20T13:13:30;4.70;;;3.20;;
28074;SDS011;15385;51.088;6.572;2023-04-20T13:16:01;5.80;;;3.33;;
28074;SDS011;15385;51.088;6.572;2023-04-20T13:18:32;3.90;;;3.50;;
28074;SDS011;15385;51.088;6.572;2023-04-20T13:21:03;4.07;;;3.50;;
28074;SDS011;15385;51.088;6.572;2023-04-20T13:23:33;3.80;;;3.40;;
28074;SDS011;15385;51.088;6.572;2023-04-20T13:26:04;4.15;;;3.38;;
28074;SDS011;15385;51.088;6.572;2023-04-20T13:28:36;3.28;;;2.80;;
28074;SDS011;15385;51.088;6.572;2023-04-20T13:31:07;4.63;;;3.30;;
28074;SDS011;15385;51.088;6.572;2023-04-20T13:33:37;4.75;;;2.75;;
28074;SDS011;15385;51.088;6.572;2023-04-20T13:36:08;3.90;;;3.15;;
28074;SDS011;15385;51.088;6.572;2023-04-20T13:38:39;3.88;;;3.38;;
28074;SDS011;15385;51.088;6.572;2023-04-20T13:41:09;4.57;;;3.22;;
28074;SDS011;15385;51.088;6.572;2023-04-20T13:43:41;5.55;;;3.40;;
28074;SDS011;15385;51.088;6.572;2023-04-20T13:46:12;4.72;;;3.00;;
28074;SDS011;15385;51.088;6.572;2023-04-20T13:48:44;3.42;;;3.08;;
28074;SDS011;15385;51.088;6.572;2023-04-20T13:51:14;4.13;;;3.40;;
28074;SDS011;15385;51.088;6.572;2023-04-20T13:53:45;3.90;;;3.28;;
28074;SDS011;15385;51.088;6.572;2023-04-20T13:56:19;4.80;;;3.30;;
28074;SDS011;15385;51.088;6.572;2023-04-20T13:58:49;5.72;;;3.33;;
28074;SDS011;15385;51.088;6.572;2023-04-20T14:01:20;3.92;;;3.30;;
28074;SDS011;15385;51.088;6.572;2023-04-20T14:03:51;5.18;;;3.33;;
28074;SDS011;15385;51.088;6.572;2023-04-20T14:06:22;5.05;;;3.78;;
28074;SDS011;15385;51.088;6.572;2023-04-20T14:08:53;4.07;;;3.45;;
28074;SDS011;15385;51.088;6.572;2023-04-20T14:11:24;4.72;;;3.50;;
28074;SDS011;15385;51.088;6.572;2023-04-20T14:13:54;5.32;;;3.65;;
28074;SDS011;15385;51.088;6.572;2023-04-20T14:16:25;6.53;;;3.47;;
28074;SDS011;15385;51.088;6.572;2023-04-20T14:18:55;3.72;;;3.28;;
28074;SDS011;15385;51.088;6.572;2023-04-20T14:21:26;6.53;;;3.80;;
28074;SDS011;15385;51.088;6.572;2023-04-20T14:23:57;8.50;;;3.50;;
28074;SDS011;15385;51.088;6.572;2023-04-20T14:26:28;6.07;;;3.25;;
28074;SDS011;15385;51.088;6.572;2023-04-20T14:28:58;7.32;;;3.75;;
28074;SDS011;15385;51.088;6.572;2023-04-20T14:31:29;5.88;;;3.53;;
28074;SDS011;15385;51.088;6.572;2023-04-20T14:34:00;4.05;;;3.55;;
28074;SDS011;15385;51.088;6.572;2023-04-20T14:36:31;5.25;;;3.50;;
28074;SDS011;15385;51.088;6.572;2023-04-20T14:39:01;4.45;;;3.10;;
28074;SDS011;15385;51.088;6.572;2023-04-20T14:41:32;4.55;;;3.10;;
28074;SDS011;15385;51.088;6.572;2023-04-20T14:44:03;5.22;;;3.60;;
28074;SDS011;15385;51.088;6.572;2023-04-20T14:46:34;5.63;;;3.53;;
28074;SDS011;15385;51.088;6.572;2023-04-20T14:49:04;3.97;;;3.40;;
28074;SDS011;15385;51.088;6.572;2023-04-20T15:02:06;4.75;;;2.95;;
28074;SDS011;15385;51.088;6.572;2023-04-20T15:04:37;6.13;;;2.80;;
28074;SDS011;15385;51.088;6.572;2023-04-20T15:07:07;4.15;;;3.25;;
28074;SDS011;15385;51.088;6.572;2023-04-20T15:09:38;4.18;;;3.40;;
28074;SDS011;15385;51.088;6.572;2023-04-20T15:12:09;3.75;;;3.08;;
28074;SDS011;15385;51.088;6.572;2023-04-20T15:14:39;4.75;;;3.35;;
28074;SDS011;15385;51.088;6.572;2023-04-20T15:17:10;4.68;;;3.72;;
28074;SDS011;15385;51.088;6.572;2023-04-20T15:19:42;5.93;;;3.65;;
28074;SDS011;15385;51.088;6.572;2023-04-20T15:22:15;5.40;;;3.75;;
28074;SDS011;15385;51.088;6.572;2023-04-20T15:24:45;5.55;;;3.33;;
28074;SDS011;15385;51.088;6.572;2023-04-20T15:27:16;4.45;;;3.70;;
28074;SDS011;15385;51.088;6.572;2023-04-20T15:29:46;4.88;;;3.70;;
28074;SDS011;15385;51.088;6.572;2023-04-20T15:32:17;4.97;;;4.03;;
28074;SDS011;15385;51.088;6.572;2023-04-20T15:34:47;6.22;;;3.83;;
28074;SDS011;15385;51.088;6.572;2023-04-20T15:37:18;7.22;;;4.40;;
28074;SDS011;15385;51.088;6.572;2023-04-20T15:39:48;11.18;;;4.30;;
28074;SDS011;15385;51.088;6.572;2023-04-20T15:42:20;8.48;;;4.00;;
28074;SDS011;15385;51.088;6.572;2023-04-20T15:44:51;5.25;;;3.80;;
28074;SDS011;15385;51.088;6.572;2023-04-20T15:47:21;5.22;;;3.92;;
28074;SDS011;15385;51.088;6.572;2023-04-20T15:49:52;5.88;;;4.13;;
28074;SDS011;15385;51.088;6.572;2023-04-20T15:52:30;4.93;;;4.28;;
28074;SDS011;15385;51.088;6.572;2023-04-20T15:55:01;6.50;;;4.10;;
28074;SDS011;15385;51.088;6.572;2023-04-20T15:57:32;6.35;;;4.40;;
28074;SDS011;15385;51.088;6.572;2023-04-20T16:00:03;5.00;;;4.07;;
28074;SDS011;15385;51.088;6.572;2023-04-20T16:02:34;5.60;;;4.32;;
28074;SDS011;15385;51.088;6.572;2023-04-20T16:05:05;8.18;;;4.40;;
28074;SDS011;15385;51.088;6.572;2023-04-20T16:07:36;6.18;;;4.07;;
28074;SDS011;15385;51.088;6.572;2023-04-20T16:10:07;5.45;;;4.00;;
28074;SDS011;15385;51.088;6.572;2023-04-20T16:12:38;5.50;;;3.75;;
28074;SDS011;15385;51.088;6.572;2023-04-20T16:15:10;4.95;;;4.20;;
28074;SDS011;15385;51.088;6.572;2023-04-20T16:17:41;7.30;;;3.83;;
28074;SDS011;15385;51.088;6.572;2023-04-20T16:20:12;6.00;;;3.75;;
28074;SDS011;15385;51.088;6.572;2023-04-20T16:22:43;4.63;;;3.95;;
28074;SDS011;15385;51.088;6.572;2023-04-20T16:25:14;5.03;;;3.92;;
28074;SDS011;15385;51.088;6.572;2023-04-20T16:27:51;5.47;;;4.47;;
28074;SDS011;15385;51.088;6.572;2023-04-20T16:30:22;6.05;;;4.10;;
28074;SDS011;15385;51.088;6.572;2023-04-20T16:32:52;7.57;;;4.15;;
28074;SDS011;15385;51.088;6.572;2023-04-20T16:35:23;7.13;;;3.70;;
28074;SDS011;15385;51.088;6.572;2023-04-20T16:37:54;4.93;;;3.17;;
28074;SDS011;15385;51.088;6.572;2023-04-20T16:40:25;4.85;;;3.53;;
28074;SDS011;15385;51.088;6.572;2023-04-20T16:42:57;5.70;;;3.63;;
28074;SDS011;15385;51.088;6.572;2023-04-20T16:45:27;6.57;;;3.50;;
28074;SDS011;15385;51.088;6.572;2023-04-20T16:47:58;4.97;;;3.72;;
28074;SDS011;15385;51.088;6.572;2023-04-20T16:50:29;5.40;;;3.70;;
28074;SDS011;15385;51.088;6.572;2023-04-20T16:53:01;6.35;;;4.68;;
28074;SDS011;15385;51.088;6.572;2023-04-20T16:55:32;6.20;;;4.72;;
28074;SDS011;15385;51.088;6.572;2023-04-20T16:58:03;5.75;;;4.70;;
28074;SDS011;15385;51.088;6.572;2023-04-20T17:00:34;6.85;;;4.47;;
28074;SDS011;15385;51.088;6.572;2023-04-20T17:03:05;7.15;;;5.35;;
28074;SDS011;15385;51.088;6.572;2023-04-20T17:05:38;7.43;;;4.95;;
28074;SDS011;15385;51.088;6.572;2023-04-20T17:08:09;8.48;;;4.70;;
28074;SDS011;15385;51.088;6.572;2023-04-20T17:10:40;7.30;;;5.53;;
28074;SDS011;15385;51.088;6.572;2023-04-20T17:13:10;6.45;;;5.15;;
28074;SDS011;15385;51.088;6.572;2023-04-20T17:15:41;5.65;;;4.63;;
28074;SDS011;15385;51.088;6.572;2023-04-20T17:18:13;7.25;;;4.82;;
28074;SDS011;15385;51.088;6.572;2023-04-20T17:20:44;4.72;;;4.22;;
28074;SDS011;15385;51.088;6.572;2023-04-20T17:23:17;6.35;;;4.88;;
28074;SDS011;15385;51.088;6.572;2023-04-20T17:25:48;6.63;;;5.15;;
28074;SDS011;15385;51.088;6.572;2023-04-20T17:28:18;5.65;;;4.78;;
28074;SDS011;15385;51.088;6.572;2023-04-20T17:33:20;6.50;;;4.40;;
28074;SDS011;15385;51.088;6.572;2023-04-20T17:35:50;5.53;;;4.47;;
28074;SDS011;15385;51.088;6.572;2023-04-20T17:38:21;5.97;;;4.60;;
28074;SDS011;15385;51.088;6.572;2023-04-20T17:40:52;9.57;;;5.03;;
28074;SDS011;15385;51.088;6.572;2023-04-20T17:43:22;7.68;;;5.15;;
28074;SDS011;15385;51.088;6.572;2023-04-20T17:48:24;5.17;;;4.63;;
28074;SDS011;15385;51.088;6.572;2023-04-20T17:50:54;5.72;;;4.38;;
28074;SDS011;15385;51.088;6.572;2023-04-20T17:53:25;5.53;;;4.13;;
28074;SDS011;15385;51.088;6.572;2023-04-20T17:55:56;5.20;;;4.10;;
28074;SDS011;15385;51.088;6.572;2023-04-20T17:58:26;5.57;;;4.30;;
28074;SDS011;15385;51.088;6.572;2023-04-20T18:00:57;5.55;;;4.50;;
28074;SDS011;15385;51.088;6.572;2023-04-20T18:03:27;5.40;;;4.35;;
28074;SDS011;15385;51.088;6.572;2023-04-20T18:05:58;6.25;;;4.43;;
28074;SDS011;15385;51.088;6.572;2023-04-20T18:08:28;6.80;;;4.20;;
28074;SDS011;15385;51.088;6.572;2023-04-20T18:10:59;6.55;;;4.75;;
28074;SDS011;15385;51.088;6.572;2023-04-20T18:13:31;5.72;;;4.38;;
28074;SDS011;15385;51.088;6.572;2023-04-20T18:16:01;7.35;;;4.65;;
28074;SDS011;15385;51.088;6.572;2023-04-20T18:18:36;6.97;;;4.95;;
28074;SDS011;15385;51.088;6.572;2023-04-20T18:21:06;6.35;;;5.20;;
28074;SDS011;15385;51.088;6.572;2023-04-20T18:23:38;6.90;;;5.15;;
28074;SDS011;15385;51.088;6.572;2023-04-20T18:26:10;5.35;;;4.78;;
28074;SDS011;15385;51.088;6.572;2023-04-20T18:28:46;5.65;;;4.80;;
28074;SDS011;15385;51.088;6.572;2023-04-20T18:31:16;6.28;;;5.03;;
28074;SDS011;15385;51.088;6.572;2023-04-20T18:33:47;7.20;;;5.30;;
28074;SDS011;15385;51.088;6.572;2023-04-20T18:36:18;5.47;;;4.97;;
28074;SDS011;15385;51.088;6.572;2023-04-20T18:43:52;5.88;;;4.78;;
28074;SDS011;15385;51.088;6.572;2023-04-20T18:48:54;6.47;;;5.47;;
28074;SDS011;15385;51.088;6.572;2023-04-20T18:56:27;5.43;;;4.68;;
28074;SDS011;15385;51.088;6.572;2023-04-20T18:58:57;6.88;;;5.82;;
28074;SDS011;15385;51.088;6.572;2023-04-20T19:01:29;6.30;;;5.03;;